Time;durP1;ratioP1;P1;durP2;ratioP2;P2;SDS_P1;SDS_P2;PMS_P1;PMS_P2;Temp;Humidity;BMP_temperature;BMP_pressure;BME280_temperature;BME280_humidity;BME280_pressure;Samples;Min_cycle;Max_cycle;Signal;HPM_P1;HPM_P2
2021/12/18 00:01:23;;;;;;;99.60;47.45;;;;;;;-2.02;100.00;101796.47;6181355;23;20448;-88
2021/12/18 00:03:48;;;;;;;97.60;46.25;;;;;;;-2.11;100.00;101810.63;6206814;23;20009;-86
2021/12/18 00:06:19;;;;;;;159.70;44.60;;;;;;;-2.00;100.00;101814.63;6179935;23;20061;-87
2021/12/18 00:08:44;;;;;;;92.60;44.45;;;;;;;-1.89;100.00;101805.53;6207561;23;20017;-84
2021/12/18 00:11:11;;;;;;;129.52;43.63;;;;;;;-2.08;100.00;101815.72;6157432;23;20040;-84
2021/12/18 00:13:37;;;;;;;171.75;45.22;;;;;;;-2.28;100.00;101827.63;6157258;23;20028;-85
2021/12/18 00:16:04;;;;;;;119.75;43.45;;;;;;;-2.30;100.00;101819.91;6205525;23;20009;-83
2021/12/18 00:18:31;;;;;;;200.57;43.10;;;;;;;-2.23;100.00;101826.59;6204340;23;20009;-85
2021/12/18 00:21:00;;;;;;;86.57;43.67;;;;;;;-2.04;100.00;101831.19;6173341;23;20057;-91
2021/12/18 00:23:29;;;;;;;;;;;;;;;-2.14;100.00;101830.66;6174344;23;20016;-86
2021/12/18 00:26:16;;;;;;;303.70;44.40;;;;;;;-2.20;100.00;101833.44;6199291;23;19916;-88
2021/12/18 00:28:42;;;;;;;118.18;43.45;;;;;;;-2.03;100.00;101818.16;6198044;23;20040;-88
2021/12/18 00:31:08;;;;;;;128.95;43.90;;;;;;;-1.92;100.00;101828.22;6168614;23;20017;-90
2021/12/18 00:33:33;;;;;;;175.32;44.20;;;;;;;-2.20;100.00;101851.63;6163027;23;20012;-89
2021/12/18 00:35:59;;;;;;;242.90;45.55;;;;;;;-2.09;100.00;101844.34;6191156;23;20013;-89
2021/12/18 00:38:29;;;;;;;259.27;46.80;;;;;;;-2.23;100.00;101862.09;6165096;23;20013;-90
2021/12/18 00:41:11;;;;;;;230.95;49.72;;;;;;;-2.35;100.00;101870.25;6192119;23;20013;-89
2021/12/18 00:44:03;;;;;;;137.00;46.15;;;;;;;-2.21;100.00;101870.69;6190848;23;20009;-90
2021/12/18 00:46:30;;;;;;;103.97;47.03;;;;;;;-1.92;100.00;101856.78;6192395;23;20013;-92
2021/12/18 00:52:44;;;;;;;181.10;46.65;;;;;;;-2.25;100.00;101853.50;6212855;23;20027;-85
2021/12/18 00:55:15;;;;;;;144.73;50.63;;;;;;;-2.28;100.00;101876.97;6211708;23;20031;-90
2021/12/18 00:57:45;;;;;;;133.48;47.13;;;;;;;-2.03;100.00;101870.13;6212861;23;20005;-88
2021/12/18 01:00:15;;;;;;;123.15;49.47;;;;;;;-2.48;100.00;101874.13;6202614;23;20360;-90
2021/12/18 01:02:43;;;;;;;112.95;46.92;;;;;;;-2.16;100.00;101874.84;6191935;23;20059;-88
2021/12/18 01:05:15;;;;;;;130.63;47.85;;;;;;;-2.22;100.00;101869.00;6192925;23;20028;-90
2021/12/18 01:07:41;;;;;;;230.40;46.72;;;;;;;-2.02;100.00;101887.38;6166883;23;20009;-93
2021/12/18 01:12:55;;;;;;;234.52;45.00;;;;;;;-2.41;100.00;101854.88;6192737;23;20062;-89
2021/12/18 01:15:34;;;;;;;455.98;48.58;;;;;;;-2.56;100.00;101858.81;6192946;23;20012;-90
2021/12/18 01:23:30;;;;;;;175.73;49.58;;;;;;;-2.56;100.00;101839.78;6194415;23;20009;-89
2021/12/18 01:25:56;;;;;;;213.60;50.90;;;;;;;-2.58;100.00;101857.16;6167373;23;20028;-88
2021/12/18 01:28:23;;;;;;;315.13;51.83;;;;;;;-2.79;100.00;101856.91;6194310;23;20005;-89
2021/12/18 01:30:48;;;;;;;270.55;49.35;;;;;;;-2.56;100.00;101860.56;6195584;23;20004;-89
2021/12/18 01:33:14;;;;;;;474.42;55.65;;;;;;;-2.79;100.00;101871.63;6197688;23;20420;-90
2021/12/18 01:35:39;;;;;;;222.43;52.65;;;;;;;-2.75;100.00;101863.69;6169479;23;20016;-92
2021/12/18 01:38:06;;;;;;;126.28;50.88;;;;;;;-2.79;100.00;101867.28;6195926;23;20008;-89
2021/12/18 01:40:34;;;;;;;302.10;52.60;;;;;;;-2.93;100.00;101848.66;6211905;23;20020;-87
2021/12/18 01:52:39;;;;;;;120.35;49.08;;;;;;;-2.59;100.00;101858.03;6098172;23;20014;-87
2021/12/18 01:54:34;;;;;;;101.47;46.67;;;;;;;-2.36;100.00;101860.78;6102822;23;20018;-87
2021/12/18 01:57:00;;;;;;;129.30;47.58;;;;;;;-2.46;100.00;101870.63;6097282;23;20014;-89
2021/12/18 01:59:38;;;;;;;135.10;44.42;;;;;;;-2.20;100.00;101854.22;6121120;23;20034;-89
2021/12/18 02:02:05;;;;;;;228.65;45.83;;;;;;;-2.32;100.00;101849.44;6120814;23;20049;-87
2021/12/18 02:04:30;;;;;;;133.02;42.95;;;;;;;-2.44;100.00;101847.19;6113580;23;20018;-90
2021/12/18 02:06:59;;;;;;;144.55;45.15;;;;;;;-2.47;100.00;101836.91;6079044;23;20021;-89
2021/12/18 02:09:31;;;;;;;165.13;45.42;;;;;;;-2.56;100.00;101834.59;6077552;23;20418;-87
2021/12/18 02:11:59;;;;;;;;;;;;;;;-2.76;100.00;101825.69;6102800;23;20025;-90
2021/12/18 02:20:51;;;;;;;239.43;42.35;;;;;;;-3.05;100.00;101835.22;6165544;23;20009;-87
2021/12/18 02:22:57;;;;;;;202.82;42.72;;;;;;;-3.17;100.00;101833.78;6195171;23;20342;-87
2021/12/18 02:25:24;;;;;;;119.13;42.45;;;;;;;-3.05;100.00;101832.63;6200612;23;20016;-87
2021/12/18 02:27:55;;;;;;;190.25;43.97;;;;;;;-3.09;100.00;101842.22;6196688;23;20143;-88
2021/12/18 02:30:22;;;;;;;85.88;41.83;;;;;;;-3.09;100.00;101842.22;6192221;23;20015;-90
2021/12/18 02:32:49;;;;;;;137.23;41.60;;;;;;;-3.06;100.00;101839.53;6164217;23;20067;-89
2021/12/18 02:35:32;;;;;;;101.00;42.08;;;;;;;-2.85;100.00;101840.66;6139830;23;20494;-88
2021/12/18 02:38:18;;;;;;;79.38;40.42;;;;;;;-2.55;100.00;101844.91;6190888;23;20298;-89
2021/12/18 02:43:15;;;;;;;81.50;41.58;;;;;;;-2.43;100.00;101841.97;6166320;23;20013;-88
2021/12/18 02:45:43;;;;;;;369.25;46.35;;;;;;;-2.41;100.00;101849.69;6164232;23;20016;-89
2021/12/18 02:48:12;;;;;;;121.93;41.60;;;;;;;-2.47;100.00;101857.66;6190367;23;20009;-89
2021/12/18 02:50:39;;;;;;;124.80;43.78;;;;;;;-2.49;100.00;101875.91;6191179;23;20071;-88
2021/12/18 02:53:06;;;;;;;98.70;40.38;;;;;;;-2.32;100.00;101862.41;6191014;23;20036;-93
2021/12/18 02:55:32;;;;;;;148.75;41.42;;;;;;;-2.23;100.00;101869.91;6139772;23;20009;-90
2021/12/18 02:58:00;;;;;;;142.45;41.65;;;;;;;-2.38;100.00;101881.59;6165782;23;20017;-90
2021/12/18 03:00:27;;;;;;;246.00;42.60;;;;;;;-2.46;100.00;101882.75;6166861;23;20427;-92
2021/12/18 03:02:53;;;;;;;298.83;43.35;;;;;;;-2.68;100.00;101896.34;6140934;23;20005;-89
2021/12/18 03:05:26;;;;;;;92.93;41.55;;;;;;;-2.45;100.00;101884.44;6192656;23;20036;-89
2021/12/18 03:07:59;;;;;;;104.00;43.60;;;;;;;-2.18;100.00;101886.16;6192698;23;20139;-92
2021/12/18 03:24:09;;;;;;;107.15;45.95;;;;;;;-2.48;100.00;101915.66;6196931;23;20085;-90
2021/12/18 03:26:36;;;;;;;109.05;45.10;;;;;;;-2.61;100.00;101913.44;6197931;23;20013;-92
2021/12/18 03:29:01;;;;;;;95.53;44.65;;;;;;;-2.67;100.00;101913.63;6197741;23;20495;-86
2021/12/18 03:31:28;;;;;;;92.05;43.72;;;;;;;-2.51;100.00;101926.97;6197278;23;20069;-87
2021/12/18 03:33:53;;;;;;;100.22;43.20;;;;;;;-2.64;100.00;101916.13;6193681;23;20416;-89
2021/12/18 03:36:19;;;;;;;81.82;40.42;;;;;;;-2.81;100.00;101925.25;6192717;23;20011;-89
2021/12/18 03:38:44;;;;;;;89.80;42.15;;;;;;;-2.70;100.00;101913.69;6115565;23;20040;-90
2021/12/18 03:41:13;;;;;;;86.63;42.17;;;;;;;-2.80;100.00;101920.03;6165286;23;20028;-87
2021/12/18 03:43:40;;;;;;;90.82;42.10;;;;;;;-2.70;100.00;101924.09;6193341;23;20016;-87
2021/12/18 03:46:43;;;;;;;102.93;43.13;;;;;;;-2.81;100.00;101907.97;6194825;23;20009;-88
2021/12/18 03:49:08;;;;;;;90.47;41.47;;;;;;;-2.49;100.00;101926.94;6167329;23;20039;-89
2021/12/18 03:51:34;;;;;;;94.47;42.70;;;;;;;-2.58;100.00;101924.63;6201404;23;20044;-87
2021/12/18 03:54:00;;;;;;;119.47;42.35;;;;;;;-2.60;100.00;101916.88;6212807;23;19993;-87
2021/12/18 03:56:25;;;;;;;112.97;40.30;;;;;;;-2.93;100.00;101910.91;6187732;23;20054;-88
2021/12/18 03:58:51;;;;;;;90.05;43.13;;;;;;;-2.89;100.00;101922.91;6213102;23;20017;-89
2021/12/18 04:01:17;;;;;;;85.63;43.05;;;;;;;-2.61;100.00;101938.53;6198549;23;20013;-88
2021/12/18 04:03:42;;;;;;;93.43;41.17;;;;;;;-2.68;100.00;101948.22;6189712;23;20083;-86
2021/12/18 04:06:08;;;;;;;85.47;39.88;;;;;;;-2.49;100.00;101940.78;6191836;23;20023;-88
2021/12/18 04:08:33;;;;;;;89.05;43.97;;;;;;;-2.25;100.00;101949.56;6165406;23;20032;-87
2021/12/18 04:10:59;;;;;;;108.15;40.22;;;;;;;-2.18;100.00;101961.47;6163009;23;20452;-87
2021/12/18 04:13:25;;;;;;;78.90;38.28;;;;;;;-2.27;100.00;101959.16;6190044;23;20005;-89
2021/12/18 04:15:50;;;;;;;81.07;38.70;;;;;;;-2.20;100.00;101976.25;6188823;23;20048;-88
2021/12/18 04:18:16;;;;;;;78.47;39.40;;;;;;;-2.45;100.00;101980.47;6189840;23;20096;-87
2021/12/18 04:20:42;;;;;;;105.40;40.25;;;;;;;-2.45;100.00;101980.47;6189740;23;20488;-89
2021/12/18 04:23:14;;;;;;;85.18;41.60;;;;;;;-2.44;100.00;101993.41;6190224;23;20047;-89
2021/12/18 04:25:44;;;;;;;113.35;40.40;;;;;;;-2.72;100.00;101995.91;6164512;23;20016;-88
2021/12/18 04:28:10;;;;;;;186.68;41.78;;;;;;;-2.72;100.00;102002.88;6192109;23;20016;-89
2021/12/18 04:30:36;;;;;;;115.07;40.78;;;;;;;-2.74;100.00;102012.41;6191408;23;20005;-92
2021/12/18 04:33:02;;;;;;;128.43;41.17;;;;;;;-2.63;100.00;102006.06;6163049;23;20017;-88
2021/12/18 04:35:30;;;;;;;113.20;41.13;;;;;;;-2.64;100.00;102021.66;6163093;23;20047;-88
2021/12/18 04:37:56;;;;;;;116.97;41.55;;;;;;;-2.46;100.00;102021.16;6168655;23;20009;-90
2021/12/18 04:40:25;;;;;;;104.45;38.95;;;;;;;-2.30;100.00;102016.38;6192206;23;20092;-88
2021/12/18 04:42:52;;;;;;;111.25;39.88;;;;;;;-2.61;100.00;102011.19;6167480;23;20440;-90
2021/12/18 04:45:18;;;;;;;113.70;39.60;;;;;;;-2.62;100.00;102028.50;6143230;23;20345;-89
2021/12/18 04:47:44;;;;;;;103.15;39.65;;;;;;;-2.69;100.00;102029.56;6192473;23;20101;-89
2021/12/18 04:50:10;;;;;;;126.32;43.25;;;;;;;-2.76;100.00;102038.41;6166865;23;20021;-88
2021/12/18 04:52:36;;;;;;;99.35;39.38;;;;;;;-2.64;100.00;102038.06;6142049;23;20013;-90
2021/12/18 04:55:04;;;;;;;89.63;41.03;;;;;;;-2.62;100.00;102045.84;6166476;23;20020;-90
2021/12/18 04:57:30;;;;;;;87.03;38.72;;;;;;;-2.40;100.00;102051.28;6166081;23;20009;-88
2021/12/18 04:59:59;;;;;;;257.67;42.35;;;;;;;-2.85;100.00;102058.56;6140895;23;20083;-91
2021/12/18 05:02:35;;;;;;;88.10;39.50;;;;;;;-2.66;100.00;102045.06;6169824;23;20344;-91
2021/12/18 05:05:03;;;;;;;88.90;37.78;;;;;;;-2.56;100.00;102047.41;6197245;23;20073;-91
2021/12/18 05:07:28;;;;;;;89.68;38.10;;;;;;;-2.33;100.00;102052.81;6195879;23;20084;-86
2021/12/18 05:09:54;;;;;;;85.07;39.47;;;;;;;-2.15;100.00;102047.06;6141199;23;20397;-88
2021/12/18 05:12:23;;;;;;;79.72;35.67;;;;;;;-2.06;100.00;102056.38;6171604;23;20037;-85
2021/12/18 05:14:49;;;;;;;64.53;31.42;;;;;;;-2.18;100.00;102049.75;6197194;23;20404;-87
2021/12/18 05:17:21;;;;;;;54.33;27.77;;;;;;;-2.66;100.00;102062.38;6193150;23;20020;-86
2021/12/18 05:19:46;;;;;;;52.13;29.80;;;;;;;-2.81;100.00;102055.81;6164951;23;20407;-87
2021/12/18 05:22:18;;;;;;;69.75;30.60;;;;;;;-2.94;100.00;102054.44;6167049;23;20005;-91
2021/12/18 05:24:44;;;;;;;65.97;32.40;;;;;;;-2.98;100.00;102070.97;6164945;23;20083;-89
2021/12/18 05:27:10;;;;;;;104.10;33.72;;;;;;;-2.97;100.00;102080.47;6167285;23;20500;-86
2021/12/18 05:30:04;;;;;;;74.25;34.55;;;;;;;-2.86;100.00;102077.59;6197593;23;20093;-88
2021/12/18 05:32:30;;;;;;;85.72;35.67;;;;;;;-2.77;100.00;102082.53;6195881;23;20019;-90
2021/12/18 05:34:59;;;;;;;108.28;35.13;;;;;;;-2.85;100.00;102082.72;6201572;23;20013;-87
2021/12/18 05:37:43;;;;;;;131.43;38.30;;;;;;;-2.99;100.00;102089.16;6171195;23;20081;-89
2021/12/18 05:40:12;;;;;;;107.97;38.20;;;;;;;-2.93;100.00;102099.38;6192582;23;20009;-90
2021/12/18 05:42:43;;;;;;;90.68;38.38;;;;;;;-2.78;100.00;102102.44;6167108;23;20499;-88
2021/12/18 05:45:13;;;;;;;139.38;37.75;;;;;;;-2.71;100.00;102108.31;6167573;23;19996;-91
2021/12/18 05:47:40;;;;;;;91.00;40.35;;;;;;;-2.69;100.00;102114.34;6194212;23;20044;-85
2021/12/18 05:50:09;;;;;;;72.90;36.42;;;;;;;-2.49;100.00;102108.63;6166218;23;20310;-89
2021/12/18 05:52:35;;;;;;;99.72;38.22;;;;;;;-2.40;100.00;102098.84;6138989;23;20045;-88
2021/12/18 05:55:04;;;;;;;93.18;37.85;;;;;;;-2.00;100.00;102111.59;6192308;23;20345;-87
2021/12/18 05:57:29;;;;;;;107.60;37.78;;;;;;;-2.35;100.00;102103.91;6166674;23;20013;-85
2021/12/18 05:59:55;;;;;;;81.68;36.97;;;;;;;-2.18;100.00;102109.50;6192981;23;20039;-91
2021/12/18 06:02:53;;;;;;;117.78;39.90;;;;;;;-2.38;100.00;102110.03;6173831;23;20013;-92
2021/12/18 06:05:35;;;;;;;111.63;39.03;;;;;;;-2.43;100.00;102116.25;6170783;23;20021;-91
2021/12/18 06:11:19;;;;;;;125.28;44.47;;;;;;;-2.38;100.00;102122.16;6146661;23;20017;-91
2021/12/18 06:13:50;;;;;;;100.80;43.05;;;;;;;-2.30;100.00;102121.09;6165873;23;20009;-89
2021/12/18 06:16:31;;;;;;;99.40;43.80;;;;;;;-2.28;100.00;102140.06;6178440;23;20088;-88
2021/12/18 06:19:35;;;;;;;159.40;43.08;;;;;;;-2.38;100.00;102148.97;6212378;23;19993;-91
2021/12/18 06:22:01;;;;;;;146.18;45.55;;;;;;;-2.29;100.00;102147.91;6171054;23;20012;-89
2021/12/18 06:27:26;;;;;;;115.22;42.70;;;;;;;-2.24;100.00;102146.03;6195202;23;20009;-91
2021/12/18 06:29:51;;;;;;;115.78;42.15;;;;;;;-2.24;100.00;102139.09;6160382;23;20324;-91
2021/12/18 06:32:17;;;;;;;106.30;42.40;;;;;;;-2.25;100.00;102152.09;6194979;23;20009;-92
2021/12/18 06:37:56;;;;;;;130.15;42.10;;;;;;;-2.36;100.00;102156.75;6281359;22;20046;-91
2021/12/18 06:40:25;;;;;;;117.80;42.05;;;;;;;-2.28;100.00;102159.97;6229537;22;20012;-92
2021/12/18 06:42:57;;;;;;;122.43;43.20;;;;;;;-2.28;100.00;102166.03;6175065;23;20020;-92
2021/12/18 06:48:46;;;;;;;122.18;44.38;;;;;;;-2.28;100.00;102176.41;6203451;23;20086;-91
2021/12/18 06:51:57;;;;;;;118.47;42.95;;;;;;;-2.19;100.00;102190.91;6231977;23;20063;-91
2021/12/18 06:54:30;;;;;;;115.00;43.08;;;;;;;-2.32;100.00;102194.72;6217608;22;20059;-90
2021/12/18 06:57:22;;;;;;;113.93;43.05;;;;;;;-2.30;100.00;102201.56;6190242;22;20024;-91
2021/12/18 07:07:59;;;;;;;101.75;40.58;;;;;;;-2.26;100.00;102212.72;6226621;22;20019;-89
2021/12/18 07:10:31;;;;;;;87.38;41.05;;;;;;;-2.29;100.00;102205.03;6217949;22;20479;-90
2021/12/18 07:13:02;;;;;;;136.27;43.45;;;;;;;-2.30;100.00;102224.09;6179211;23;20009;-92
2021/12/18 07:15:32;;;;;;;133.75;41.63;;;;;;;-2.34;100.00;102230.22;6203733;22;20013;-90
2021/12/18 07:18:04;;;;;;;101.63;40.75;;;;;;;-2.27;100.00;102234.38;6235255;22;20019;-92
2021/12/18 07:20:33;;;;;;;114.85;40.08;;;;;;;-2.26;100.00;102247.34;6236829;22;20084;-91
2021/12/18 07:22:59;;;;;;;98.47;39.53;;;;;;;-2.28;100.00;102248.25;6236052;22;20411;-91
2021/12/18 07:25:25;;;;;;;80.15;39.05;;;;;;;-2.18;100.00;102253.19;6221352;22;20042;-90
2021/12/18 07:35:55;;;;;;;107.22;39.63;;;;;;;-2.19;100.00;102268.81;6266340;23;20058;-91
2021/12/18 07:38:21;;;;;;;144.07;39.70;;;;;;;-2.29;100.00;102272.53;6236944;23;20023;-93
2021/12/18 07:40:50;;;;;;;112.57;41.50;;;;;;;-2.31;100.00;102274.28;6263041;23;20019;-92
2021/12/18 07:43:19;;;;;;;109.35;40.20;;;;;;;-2.26;100.00;102288.91;6226232;23;20013;-92
2021/12/18 07:45:56;;;;;;;87.65;40.25;;;;;;;-2.24;100.00;102294.03;6203935;23;20375;-92
2021/12/18 07:48:25;;;;;;;100.22;41.28;;;;;;;-2.16;100.00;102300.75;6257029;23;20027;-92
2021/12/18 07:50:56;;;;;;;122.93;39.38;;;;;;;-2.27;100.00;102301.91;6253919;23;20028;-92
2021/12/18 07:53:24;;;;;;;173.43;44.53;;;;;;;-2.36;100.00;102299.53;6233709;23;20034;-91
2021/12/18 07:55:56;;;;;;;107.57;43.27;;;;;;;-2.19;100.00;102305.19;6253885;23;20004;-91
2021/12/18 08:06:48;;;;;;;109.15;43.17;;;;;;;-1.97;100.00;102316.72;6236967;22;20059;-90
2021/12/18 08:09:14;;;;;;;93.95;41.78;;;;;;;-1.82;100.00;102321.53;6250580;22;20032;-90
2021/12/18 08:11:43;;;;;;;157.75;41.55;;;;;;;-1.89;100.00;102332.97;6266749;22;20008;-91
2021/12/18 08:14:42;;;;;;;135.53;40.13;;;;;;;-1.84;100.00;102323.31;6213850;23;20057;-90
2021/12/18 08:17:19;;;;;;;120.93;39.65;;;;;;;-1.78;100.00;102330.94;6181441;23;20025;-90
2021/12/18 08:19:46;;;;;;;;;;;;;;;-1.79;100.00;102326.63;6249841;22;20035;-90
2021/12/18 08:22:42;;;;;;;95.45;41.55;;;;;;;-1.71;100.00;102332.50;6237337;22;19931;-90
2021/12/18 08:25:14;;;;;;;122.70;40.90;;;;;;;-1.71;100.00;102335.09;6256230;23;20008;-91
2021/12/18 08:27:55;;;;;;;95.03;43.25;;;;;;;-1.53;100.00;102341.56;6179500;23;20020;-88
2021/12/18 08:30:25;;;;;;;153.50;41.80;;;;;;;-1.71;100.00;102348.09;6209316;23;20436;-90
2021/12/18 08:32:54;;;;;;;119.78;39.28;;;;;;;-1.47;100.00;102346.59;6225985;23;20039;-89
2021/12/18 08:35:20;;;;;;;73.03;37.50;;;;;;;-1.29;100.00;102360.88;6226173;23;20062;-88
2021/12/18 08:37:52;;;;;;;99.90;36.65;;;;;;;-1.73;100.00;102370.69;6201708;23;20012;-87
2021/12/18 08:40:19;;;;;;;85.20;36.85;;;;;;;-1.45;100.00;102368.19;6226100;23;20035;-91
2021/12/18 08:42:45;;;;;;;73.90;36.47;;;;;;;-1.71;100.00;102361.09;6253278;23;20009;-91
2021/12/18 08:45:18;;;;;;;68.97;34.30;;;;;;;-1.54;100.00;102363.25;6201607;23;20044;-91
2021/12/18 08:47:44;;;;;;;69.38;35.05;;;;;;;-1.57;100.00;102369.41;6227194;23;20142;-90
2021/12/18 08:50:18;;;;;;;66.82;33.08;;;;;;;-1.56;100.00;102376.28;6268010;23;20008;-90
2021/12/18 08:52:46;;;;;;;63.90;32.50;;;;;;;-1.54;100.00;102367.59;6232888;23;20012;-89
2021/12/18 08:55:16;;;;;;;63.70;33.58;;;;;;;-1.81;100.00;102370.00;6197706;23;20027;-90
2021/12/18 08:57:44;;;;;;;66.13;35.45;;;;;;;-1.77;100.00;102371.66;6199325;23;20522;-90
2021/12/18 09:00:12;;;;;;;74.70;34.63;;;;;;;-1.61;100.00;102365.16;6251438;23;20016;-89
2021/12/18 09:02:40;;;;;;;77.30;37.00;;;;;;;-1.37;100.00;102376.66;6225268;23;20013;-91
2021/12/18 09:05:07;;;;;;;78.07;37.13;;;;;;;-1.40;100.00;102375.91;6251122;23;20004;-89
2021/12/18 09:07:41;;;;;;;72.93;36.35;;;;;;;-1.36;100.00;102382.72;6222852;23;20019;-91
2021/12/18 09:10:09;;;;;;;69.60;38.30;;;;;;;-1.38;100.00;102366.28;6222422;23;20016;-90
2021/12/18 09:12:35;;;;;;;70.40;35.85;;;;;;;-1.44;100.00;102374.25;6249734;23;20083;-90
2021/12/18 09:15:01;;;;;;;70.75;36.38;;;;;;;-1.27;100.00;102372.94;6249620;23;20016;-87
2021/12/18 09:17:28;;;;;;;68.50;38.08;;;;;;;-1.12;100.00;102372.50;6224545;23;20012;-91
2021/12/18 09:19:53;;;;;;;74.07;37.95;;;;;;;-1.19;100.00;102367.50;6249941;23;20016;-88
2021/12/18 09:22:19;;;;;;;80.53;38.72;;;;;;;-1.29;100.00;102366.91;6223023;23;20059;-90
2021/12/18 09:24:46;;;;;;;90.70;41.00;;;;;;;-1.23;100.00;102364.16;6224182;23;20016;-90
2021/12/18 09:27:15;;;;;;;94.00;41.83;;;;;;;-1.15;100.00;102363.91;6223139;23;20339;-90
2021/12/18 09:29:45;;;;;;;85.07;42.30;;;;;;;-1.24;100.00;102358.97;6247660;23;20019;-89
2021/12/18 09:32:10;;;;;;;79.63;40.92;;;;;;;-0.91;100.00;102359.78;6221604;23;20054;-91
2021/12/18 09:34:36;;;;;;;88.80;42.35;;;;;;;-0.81;100.00;102362.06;6221737;23;20394;-90
2021/12/18 09:37:03;;;;;;;81.78;40.38;;;;;;;-0.63;100.00;102356.31;6224469;23;20004;-92
2021/12/18 09:39:29;;;;;;;84.32;39.22;;;;;;;-1.04;100.00;102361.88;6198942;23;20087;-91
2021/12/18 09:41:57;;;;;;;78.65;41.92;;;;;;;-1.16;100.00;102372.66;6223786;23;20369;-91
2021/12/18 09:44:24;;;;;;;83.55;41.97;;;;;;;-1.20;100.00;102381.41;6222865;23;20016;-88
2021/12/18 09:46:49;;;;;;;115.32;42.10;;;;;;;-1.17;100.00;102383.94;6222752;23;20016;-88
2021/12/18 09:49:24;;;;;;;99.88;46.10;;;;;;;-1.15;100.00;102382.13;6251162;23;20019;-88
2021/12/18 09:51:53;;;;;;;119.40;45.60;;;;;;;-1.14;100.00;102383.84;6219109;23;20018;-89
2021/12/18 09:54:19;;;;;;;110.30;47.17;;;;;;;-1.03;100.00;102381.81;6235096;23;20012;-88
2021/12/18 09:56:46;;;;;;;109.28;46.90;;;;;;;-1.01;100.00;102386.94;6257007;23;20008;-87
2021/12/18 09:59:14;;;;;;;139.07;46.28;;;;;;;-0.91;100.00;102375.38;6224455;23;20462;-89
2021/12/18 10:01:40;;;;;;;108.30;46.88;;;;;;;-1.00;100.00;102373.06;6251898;23;20000;-91
2021/12/18 10:04:27;;;;;;;107.00;47.60;;;;;;;-0.91;100.00;102367.59;6231662;23;20034;-89
2021/12/18 10:06:58;;;;;;;105.53;47.42;;;;;;;-0.77;100.00;102378.47;6230750;23;20027;-91
2021/12/18 10:09:46;;;;;;;115.90;47.13;;;;;;;-0.78;100.00;102364.59;6236611;23;20047;-90
2021/12/18 10:12:32;;;;;;;112.28;47.83;;;;;;;-0.78;100.00;102366.31;6234174;23;20027;-89
2021/12/18 10:15:02;;;;;;;109.25;48.50;;;;;;;-0.49;100.00;102370.66;6244854;23;20023;-89
2021/12/18 10:17:31;;;;;;;133.00;49.92;;;;;;;-0.80;100.00;102366.41;6264801;23;20008;-90
2021/12/18 10:20:18;;;;;;;109.53;51.20;;;;;;;-0.59;100.00;102350.13;6269578;23;20095;-87
2021/12/18 10:22:48;;;;;;;112.75;50.00;;;;;;;-0.57;100.00;102350.94;6245476;23;20008;-90
2021/12/18 10:25:18;;;;;;;106.18;48.63;;;;;;;-0.52;100.00;102356.84;6271917;23;20013;-87
2021/12/18 10:27:59;;;;;;;126.53;51.13;;;;;;;-0.54;100.00;102344.78;6273130;22;20016;-88
2021/12/18 10:30:27;;;;;;;129.35;54.33;;;;;;;-0.58;100.00;102344.03;6222438;23;20020;-87
2021/12/18 10:33:00;;;;;;;127.40;55.15;;;;;;;-0.55;100.00;102350.88;6273877;22;20000;-91
2021/12/18 10:35:39;;;;;;;122.05;54.33;;;;;;;-0.57;100.00;102365.69;6273401;22;20041;-91
2021/12/18 10:38:06;;;;;;;128.00;57.10;;;;;;;-0.23;100.00;102366.34;6221994;22;20019;-87
2021/12/18 10:40:46;;;;;;;123.95;54.13;;;;;;;-0.35;100.00;102371.09;6269246;22;19988;-91
2021/12/18 10:43:14;;;;;;;132.63;53.05;;;;;;;-0.42;100.00;102364.38;6246082;23;20027;-87
2021/12/18 10:45:41;;;;;;;129.82;55.40;;;;;;;-0.49;100.00;102368.06;6271865;22;20027;-86
2021/12/18 10:48:12;;;;;;;149.90;57.88;;;;;;;-0.60;100.00;102356.22;6273054;22;20007;-87
2021/12/18 10:50:46;;;;;;;124.85;55.75;;;;;;;-0.59;100.00;102342.31;6222122;23;20000;-86
2021/12/18 10:53:22;;;;;;;131.25;56.85;;;;;;;-0.55;100.00;102351.72;6271822;23;20011;-87
2021/12/18 10:55:57;;;;;;;147.75;59.95;;;;;;;-0.59;100.00;102350.13;6272872;22;20046;-87
2021/12/18 10:58:34;;;;;;;162.60;57.53;;;;;;;-0.59;100.00;102350.13;6273638;22;20035;-88
2021/12/18 11:01:10;;;;;;;154.15;60.25;;;;;;;-0.66;100.00;102330.38;6242453;23;20019;-89
2021/12/18 11:03:47;;;;;;;154.25;65.22;;;;;;;-0.66;100.00;102332.97;6211507;23;20335;-88
2021/12/18 11:06:26;;;;;;;157.00;62.58;;;;;;;-0.52;100.00;102333.41;6265293;23;20003;-87
2021/12/18 11:09:25;;;;;;;136.15;61.03;;;;;;;-0.49;100.00;102329.84;6240249;23;20012;-88
2021/12/18 11:14:38;;;;;;;160.20;61.30;;;;;;;-0.50;100.00;102329.91;6267036;23;20508;-89
2021/12/18 11:17:10;;;;;;;139.48;58.53;;;;;;;-0.28;100.00;102325.72;6272839;23;20012;-89
2021/12/18 11:19:40;;;;;;;142.90;59.78;;;;;;;-0.32;100.00;102313.69;6244830;23;20000;-89
2021/12/18 11:22:09;;;;;;;141.98;57.95;;;;;;;-0.32;100.00;102318.91;6258946;23;20043;-87
2021/12/18 11:24:49;;;;;;;131.35;57.70;;;;;;;-0.27;100.00;102317.88;6266531;23;20000;-90
2021/12/18 11:27:20;;;;;;;142.38;61.45;;;;;;;-0.29;100.00;102321.41;6264356;23;20012;-89
2021/12/18 11:30:00;;;;;;;153.38;62.78;;;;;;;-0.24;100.00;102312.56;6230498;23;20012;-88
2021/12/18 11:32:36;;;;;;;165.88;64.05;;;;;;;-0.24;100.00;102304.75;6260598;23;20011;-89
2021/12/18 11:35:07;;;;;;;141.95;61.15;;;;;;;0.02;100.00;102297.81;6206409;23;20064;-90
2021/12/18 11:37:43;;;;;;;137.60;58.25;;;;;;;0.07;100.00;102301.13;6236851;23;20015;-88
2021/12/18 11:43:34;;;;;;;136.77;59.65;;;;;;;0.32;100.00;102296.78;6240828;23;20012;-87
2021/12/18 11:46:00;;;;;;;128.38;57.88;;;;;;;0.24;100.00;102294.41;6245483;23;20008;-86
2021/12/18 11:48:26;;;;;;;142.65;56.75;;;;;;;0.03;100.00;102291.72;6265467;23;20019;-87
2021/12/18 11:50:52;;;;;;;123.45;55.83;;;;;;;-0.20;100.00;102288.09;6205468;23;20407;-89
2021/12/18 11:53:32;;;;;;;124.28;57.17;;;;;;;-0.31;100.00;102278.94;6253325;23;20328;-87
2021/12/18 11:56:01;;;;;;;126.80;57.33;;;;;;;-0.32;100.00;102288.50;6253723;23;20012;-88
2021/12/18 11:58:40;;;;;;;120.43;54.88;;;;;;;-0.30;100.00;102280.66;6250168;23;20008;-88
2021/12/18 12:01:30;;;;;;;112.70;53.40;;;;;;;-0.22;100.00;102268.22;6256533;23;20012;-89
2021/12/18 12:04:00;;;;;;;120.88;56.83;;;;;;;-0.30;100.00;102281.47;6245922;23;20023;-89
2021/12/18 12:06:53;;;;;;;120.22;56.08;;;;;;;-0.02;100.00;102278.81;6217123;23;20020;-90
2021/12/18 12:09:37;;;;;;;118.38;55.67;;;;;;;0.17;100.00;102277.28;6256446;23;20070;-89
2021/12/18 12:12:10;;;;;;;117.75;54.78;;;;;;;0.08;100.00;102267.19;6227740;23;20513;-87
2021/12/18 12:14:42;;;;;;;105.88;52.42;;;;;;;0.17;100.00;102264.25;6257073;23;20012;-92
2021/12/18 12:17:27;;;;;;;105.32;51.72;;;;;;;0.06;100.00;102269.00;6202730;23;20023;-90
2021/12/18 12:20:05;;;;;;;99.05;50.42;;;;;;;0.06;100.00;102252.50;6252852;23;20035;-90
2021/12/18 12:22:56;;;;;;;98.28;49.75;;;;;;;0.18;100.00;102252.94;6260039;23;20012;-91
2021/12/18 12:25:41;;;;;;;107.20;51.00;;;;;;;0.13;100.00;102239.22;6266930;23;20027;-88
2021/12/18 12:31:13;;;;;;;110.57;54.55;;;;;;;0.19;100.00;102241.59;6292038;22;20019;-88
2021/12/18 12:33:43;;;;;;;111.75;52.03;;;;;;;0.40;100.00;102237.34;6246123;23;20027;-87
2021/12/18 12:38:59;;;;;;;106.57;52.83;;;;;;;0.28;100.00;102236.06;6188473;23;20443;-87
2021/12/18 12:41:26;;;;;;;108.03;53.75;;;;;;;0.35;100.00;102224.50;6186748;23;20020;-91
2021/12/18 12:44:00;;;;;;;110.90;53.88;;;;;;;0.46;100.00;102224.94;6162017;23;20339;-89
2021/12/18 12:46:29;;;;;;;102.30;50.50;;;;;;;0.61;100.00;102231.38;6247222;22;20091;-89